createdAt,value
2023-04-17T00:00:26.393Z,8.00
2023-04-17T00:02:53.376Z,7.80
2023-04-17T00:05:23.401Z,8.23
2023-04-17T00:07:50.212Z,8.98
2023-04-17T00:10:16.988Z,9.05
2023-04-17T00:12:43.802Z,10.27
2023-04-17T00:15:11.059Z,9.52
2023-04-17T00:17:37.942Z,9.68
2023-04-17T00:20:10.489Z,9.35
2023-04-17T00:22:37.954Z,8.40
2023-04-17T00:25:05.670Z,9.30
2023-04-17T00:27:32.564Z,15.55
2023-04-17T00:29:59.358Z,11.60
2023-04-17T00:32:26.250Z,12.23
2023-04-17T00:34:55.577Z,12.65
2023-04-17T00:37:22.535Z,12.38
2023-04-17T00:39:49.289Z,10.50
2023-04-17T00:42:16.024Z,10.82
2023-04-17T00:44:42.866Z,11.00
2023-04-17T00:47:09.871Z,9.80
2023-04-17T00:49:36.842Z,11.20
2023-04-17T00:52:04.179Z,9.80
2023-04-17T00:54:31.916Z,10.73
2023-04-17T00:57:01.328Z,9.50
2023-04-17T00:59:29.035Z,10.02
2023-04-17T01:01:56.160Z,9.95
2023-04-17T01:04:23.318Z,10.77
2023-04-17T01:06:50.126Z,9.55
2023-04-17T01:09:17.129Z,10.90
2023-04-17T01:11:43.974Z,9.52
2023-04-17T01:14:10.944Z,11.80
2023-04-17T01:16:39.386Z,12.95
2023-04-17T01:19:08.849Z,10.55
2023-04-17T01:21:36.042Z,9.35
2023-04-17T01:24:03.638Z,12.10
2023-04-17T01:26:32.430Z,8.93
2023-04-17T01:29:00.051Z,9.20
2023-04-17T01:31:28.976Z,7.82
2023-04-17T01:33:56.109Z,11.68
2023-04-17T01:36:22.957Z,7.85
2023-04-17T01:38:49.772Z,7.93
2023-04-17T01:41:16.649Z,8.60
2023-04-17T01:43:46.273Z,8.23
2023-04-17T01:46:13.556Z,7.95
2023-04-17T01:48:40.906Z,8.48
2023-04-17T01:51:07.851Z,7.82
2023-04-17T01:53:35.393Z,7.28
2023-04-17T01:56:02.539Z,8.90
2023-04-17T01:58:29.645Z,9.57
2023-04-17T02:00:56.465Z,9.90
2023-04-17T02:03:24.839Z,7.75
2023-04-17T02:05:53.706Z,7.05
2023-04-17T02:08:20.709Z,6.25
2023-04-17T02:10:47.536Z,7.95
2023-04-17T02:13:14.332Z,6.78
2023-04-17T02:15:41.133Z,7.60
2023-04-17T02:18:08.333Z,7.32
2023-04-17T02:20:36.734Z,8.35
2023-04-17T02:23:05.004Z,6.57
2023-04-17T02:25:31.998Z,6.70
2023-04-17T02:27:58.780Z,8.73
2023-04-17T02:30:26.857Z,7.97
2023-04-17T02:32:54.510Z,7.68
2023-04-17T02:35:23.173Z,7.07
2023-04-17T02:37:50.387Z,7.20
2023-04-17T02:40:17.341Z,6.15
2023-04-17T02:42:44.125Z,6.93
2023-04-17T02:45:11.891Z,8.93
2023-04-17T02:47:38.723Z,9.32
2023-04-17T02:50:06.536Z,8.15
2023-04-17T02:52:33.761Z,6.20
2023-04-17T02:55:00.539Z,4.22
2023-04-17T02:57:27.354Z,6.57
2023-04-17T02:59:54.158Z,5.70
2023-04-17T03:02:22.268Z,5.57
2023-04-17T03:04:50.705Z,4.95
2023-04-17T03:07:18.944Z,5.95
2023-04-17T03:09:49.306Z,6.53
2023-04-17T03:12:17.736Z,5.55
2023-04-17T03:14:44.616Z,5.32
2023-04-17T03:17:12.227Z,5.28
2023-04-17T03:19:39.052Z,4.60
2023-04-17T03:22:06.005Z,5.53
2023-04-17T03:24:33.128Z,5.28
2023-04-17T03:27:01.196Z,6.32
2023-04-17T03:29:28.379Z,5.75
2023-04-17T03:31:55.190Z,7.15
2023-04-17T03:34:22.399Z,7.88
2023-04-17T03:36:49.494Z,7.28
2023-04-17T03:39:16.459Z,6.55
2023-04-17T03:41:43.319Z,6.95
2023-04-17T03:44:10.272Z,5.95
2023-04-17T03:46:38.465Z,5.75
2023-04-17T03:49:05.705Z,8.05
2023-04-17T03:51:32.482Z,7.43
2023-04-17T03:53:59.304Z,5.95
2023-04-17T03:56:26.252Z,5.90
2023-04-17T03:58:53.057Z,8.13
2023-04-17T04:01:19.982Z,6.80
2023-04-17T04:03:47.032Z,5.20
2023-04-17T04:06:13.924Z,5.38
2023-04-17T04:08:40.699Z,5.97
2023-04-17T04:11:08.398Z,5.97
2023-04-17T04:13:35.104Z,6.07
2023-04-17T04:16:01.907Z,6.03
2023-04-17T04:18:28.707Z,6.28
2023-04-17T04:20:55.603Z,4.57
2023-04-17T04:23:25.164Z,5.32
2023-04-17T04:25:51.978Z,6.95
2023-04-17T04:28:18.809Z,5.95
2023-04-17T04:30:50.751Z,5.15
2023-04-17T04:33:20.652Z,3.95
2023-04-17T04:35:48.968Z,5.15
2023-04-17T04:38:17.334Z,5.22
2023-04-17T04:40:52.537Z,5.45
2023-04-17T04:43:22.201Z,4.05
2023-04-17T04:45:49.247Z,5.22
2023-04-17T04:48:16.002Z,4.53
2023-04-17T04:50:42.878Z,7.43
2023-04-17T04:53:09.653Z,4.10
2023-04-17T04:55:36.337Z,4.68
2023-04-17T04:58:03.108Z,3.92
2023-04-17T05:00:30.138Z,5.90
2023-04-17T05:02:57.119Z,6.35
2023-04-17T05:05:25.514Z,5.70
2023-04-17T05:07:55.147Z,7.13
2023-04-17T05:10:21.957Z,4.40
2023-04-17T05:12:48.734Z,5.28
2023-04-17T05:15:15.685Z,5.40
2023-04-17T05:17:42.505Z,5.57
2023-04-17T05:20:09.875Z,6.43
2023-04-17T05:22:36.889Z,6.65
2023-04-17T05:25:04.834Z,5.95
2023-04-17T05:27:31.648Z,6.68
2023-04-17T05:29:58.456Z,5.05
2023-04-17T05:32:25.552Z,6.60
2023-04-17T05:34:53.704Z,6.65
2023-04-17T05:37:20.648Z,4.53
2023-04-17T05:39:47.469Z,5.43
2023-04-17T05:42:14.281Z,4.97
2023-04-17T05:44:41.332Z,6.70
2023-04-17T05:47:08.064Z,5.25
2023-04-17T05:49:34.943Z,4.15
2023-04-17T05:52:01.774Z,4.72
2023-04-17T05:54:30.384Z,5.47
2023-04-17T05:56:57.207Z,4.75
2023-04-17T05:59:23.957Z,3.95
2023-04-17T06:01:51.192Z,4.53
2023-04-17T06:04:18.660Z,3.65
2023-04-17T06:06:45.712Z,4.20
2023-04-17T06:09:12.770Z,4.63
2023-04-17T06:11:39.602Z,4.03
2023-04-17T06:14:06.501Z,3.97
2023-04-17T06:16:33.280Z,4.90
2023-04-17T06:19:00.001Z,4.10
2023-04-17T06:21:27.039Z,3.85
2023-04-17T06:23:53.861Z,3.70
2023-04-17T06:26:20.808Z,3.80
2023-04-17T06:28:47.557Z,3.78
2023-04-17T06:31:14.364Z,3.90
2023-04-17T06:33:41.043Z,3.95
2023-04-17T06:36:07.866Z,5.20
2023-04-17T06:38:34.680Z,5.93
2023-04-17T06:41:01.506Z,5.97
2023-04-17T06:43:28.235Z,4.93
2023-04-17T06:45:55.205Z,4.57
2023-04-17T06:48:22.048Z,5.95
2023-04-17T06:50:49.181Z,5.53
2023-04-17T06:53:16.220Z,4.20
2023-04-17T06:55:42.992Z,4.25
2023-04-17T06:58:09.768Z,3.63
2023-04-17T07:00:36.691Z,4.53
2023-04-17T07:03:03.608Z,3.70
2023-04-17T07:05:30.732Z,3.95
2023-04-17T07:07:57.534Z,3.88
2023-04-17T07:10:24.356Z,4.80
2023-04-17T07:12:51.271Z,5.53
2023-04-17T07:15:18.482Z,4.45
2023-04-17T07:17:45.255Z,4.38
2023-04-17T07:20:12.306Z,3.97
2023-04-17T07:22:39.095Z,6.82
2023-04-17T07:25:06.785Z,6.35
2023-04-17T07:27:33.546Z,5.82
2023-04-17T07:30:00.801Z,5.07
2023-04-17T07:32:28.625Z,4.90
2023-04-17T07:34:55.682Z,6.22
2023-04-17T07:37:22.486Z,6.07
2023-04-17T07:39:53.063Z,5.45
2023-04-17T07:42:19.911Z,6.72
2023-04-17T07:44:47.408Z,5.13
2023-04-17T07:47:14.289Z,4.00
2023-04-17T07:49:41.275Z,4.95
2023-04-17T07:52:08.065Z,4.50
2023-04-17T07:54:34.841Z,6.32
2023-04-17T07:57:03.077Z,5.45
2023-04-17T07:59:30.680Z,5.75
2023-04-17T08:01:57.790Z,5.28
2023-04-17T08:04:26.016Z,6.07
2023-04-17T08:06:52.983Z,5.22
2023-04-17T08:09:22.299Z,5.25
2023-04-17T08:11:57.034Z,5.63
2023-04-17T08:14:25.515Z,5.38
2023-04-17T08:16:52.485Z,3.72
2023-04-17T08:19:19.331Z,4.50
2023-04-17T08:21:49.670Z,6.65
2023-04-17T08:24:19.788Z,4.10
2023-04-17T08:26:47.557Z,5.18
2023-04-17T08:29:14.671Z,5.28
2023-04-17T08:31:41.723Z,4.43
2023-04-17T08:34:14.332Z,4.95
2023-04-17T08:36:41.903Z,5.55
2023-04-17T08:39:11.343Z,5.13
2023-04-17T08:42:03.101Z,4.55
2023-04-17T08:44:30.707Z,4.20
2023-04-17T08:47:01.017Z,5.20
2023-04-17T08:49:35.472Z,4.82
2023-04-17T08:52:04.565Z,5.25
2023-04-17T08:54:35.410Z,4.68
2023-04-17T08:57:05.885Z,6.35
2023-04-17T08:59:32.842Z,4.88
2023-04-17T09:02:07.819Z,6.00
2023-04-17T09:04:45.436Z,6.10
2023-04-17T09:07:13.731Z,5.93
2023-04-17T09:09:50.968Z,3.55
2023-04-17T09:12:19.215Z,4.38
2023-04-17T09:14:46.108Z,6.47
2023-04-17T09:17:14.289Z,6.40
2023-04-17T09:20:07.306Z,5.03
2023-04-17T09:22:35.469Z,5.50
2023-04-17T09:25:02.894Z,4.85
2023-04-17T09:27:29.932Z,5.75
2023-04-17T09:30:00.163Z,4.75
2023-04-17T09:37:51.644Z,4.30
2023-04-17T09:40:20.544Z,4.70
2023-04-17T09:42:58.453Z,6.05
2023-04-17T09:45:27.079Z,3.85
2023-04-17T09:47:57.472Z,5.70
2023-04-17T09:55:38.293Z,6.78
2023-04-17T09:58:07.751Z,5.13
2023-04-17T10:00:36.751Z,4.65
2023-04-17T10:03:03.985Z,5.05
2023-04-17T10:05:32.560Z,5.07
2023-04-17T10:07:59.788Z,3.92
2023-04-17T10:10:33.790Z,3.97
2023-04-17T10:13:07.293Z,4.05
2023-04-17T10:18:20.104Z,4.70
2023-04-17T10:20:48.751Z,4.63
2023-04-17T10:23:34.351Z,4.38
2023-04-17T10:26:34.559Z,5.10
2023-04-17T10:29:01.308Z,4.63
2023-04-17T10:32:06.141Z,5.63
2023-04-17T10:34:41.811Z,5.40
2023-04-17T10:37:15.413Z,4.10
2023-04-17T10:40:10.251Z,4.97
2023-04-17T10:42:37.110Z,4.20
2023-04-17T10:45:09.097Z,5.15
2023-04-17T10:47:36.241Z,5.50
2023-04-17T10:50:05.433Z,3.95
2023-04-17T10:52:35.221Z,4.43
2023-04-17T10:55:09.199Z,4.32
2023-04-17T10:58:01.203Z,4.53
2023-04-17T11:00:30.124Z,4.88
2023-04-17T11:02:57.033Z,4.35
2023-04-17T11:05:24.419Z,5.18
2023-04-17T11:07:51.671Z,4.72
2023-04-17T11:10:23.058Z,5.07
2023-04-17T11:12:58.665Z,5.22
2023-04-17T11:15:29.987Z,4.15
2023-04-17T11:17:58.970Z,4.70
2023-04-17T11:20:28.033Z,5.90
2023-04-17T11:22:54.874Z,4.72
2023-04-17T11:25:27.099Z,4.55
2023-04-17T11:27:58.570Z,3.90
2023-04-17T11:30:28.402Z,3.60
2023-04-17T11:32:57.477Z,6.05
2023-04-17T11:35:28.917Z,5.15
2023-04-17T11:38:19.295Z,4.50
2023-04-17T11:40:59.170Z,5.63
2023-04-17T11:43:27.960Z,5.28
2023-04-17T11:45:59.822Z,4.70
2023-04-17T11:48:28.628Z,4.15
2023-04-17T11:51:03.735Z,4.90
2023-04-17T11:53:31.231Z,4.25
2023-04-17T11:56:15.789Z,4.95
2023-04-17T11:58:46.881Z,4.63
2023-04-17T12:01:13.773Z,4.97
2023-04-17T12:03:41.833Z,4.85
2023-04-17T12:06:13.288Z,5.20
2023-04-17T12:08:54.387Z,4.63
2023-04-17T12:11:31.368Z,4.30
2023-04-17T12:13:58.707Z,4.65
2023-04-17T12:16:26.715Z,4.70
2023-04-17T12:18:54.546Z,4.00
2023-04-17T12:21:22.150Z,4.93
2023-04-17T12:23:48.927Z,4.60
2023-04-17T12:26:15.866Z,4.25
2023-04-17T12:28:42.781Z,4.53
2023-04-17T12:31:09.745Z,4.43
2023-04-17T12:33:36.558Z,4.60
2023-04-17T12:36:05.454Z,3.65
2023-04-17T12:38:32.405Z,4.63
2023-04-17T12:40:59.128Z,4.43
2023-04-17T12:43:25.932Z,4.43
2023-04-17T12:45:53.189Z,5.72
2023-04-17T12:48:19.973Z,4.50
2023-04-17T12:50:46.676Z,4.78
2023-04-17T12:53:14.679Z,3.97
2023-04-17T12:55:44.037Z,4.15
2023-04-17T12:58:12.221Z,4.90
2023-04-17T13:00:40.693Z,4.70
2023-04-17T13:03:07.813Z,4.90
2023-04-17T13:05:34.845Z,5.13
2023-04-17T13:08:01.937Z,4.78
2023-04-17T13:10:28.922Z,4.22
2023-04-17T13:12:57.950Z,4.00
2023-04-17T13:15:25.094Z,4.00
2023-04-17T13:17:51.855Z,4.05
2023-04-17T13:20:19.007Z,4.40
2023-04-17T13:22:45.751Z,3.55
2023-04-17T13:25:12.390Z,4.40
2023-04-17T13:27:39.170Z,3.92
2023-04-17T13:30:06.706Z,4.25
2023-04-17T13:32:35.058Z,4.03
2023-04-17T13:35:03.082Z,4.28
2023-04-17T13:37:29.949Z,3.67
2023-04-17T13:39:56.759Z,3.97
2023-04-17T13:42:23.604Z,4.38
2023-04-17T13:44:50.318Z,4.18
2023-04-17T13:47:17.049Z,4.70
2023-04-17T13:49:43.977Z,4.07
2023-04-17T13:52:10.865Z,4.78
2023-04-17T13:54:37.659Z,4.18
2023-04-17T13:57:04.409Z,3.95
2023-04-17T13:59:31.166Z,3.97
2023-04-17T14:02:00.445Z,3.78
2023-04-17T14:04:27.445Z,4.00
2023-04-17T14:06:54.568Z,3.67
2023-04-17T14:09:21.331Z,4.10
2023-04-17T14:11:48.093Z,4.28
2023-04-17T14:14:14.863Z,3.40
2023-04-17T14:16:41.707Z,3.33
2023-04-17T14:19:14.202Z,3.85
2023-04-17T14:24:08.990Z,3.85
2023-04-17T14:26:37.570Z,4.15
2023-04-17T14:29:05.832Z,3.88
2023-04-17T14:31:32.658Z,4.10
2023-04-17T14:33:59.364Z,3.47
2023-04-17T14:36:26.240Z,4.28
2023-04-17T14:38:54.383Z,4.78
2023-04-17T14:41:21.385Z,4.35
2023-04-17T14:43:48.299Z,3.97
2023-04-17T14:46:15.165Z,4.32
2023-04-17T14:51:15.317Z,3.38
2023-04-17T14:53:42.176Z,4.35
2023-04-17T14:56:09.684Z,4.10
2023-04-17T14:58:36.587Z,4.68
2023-04-17T15:01:03.831Z,4.07
2023-04-17T15:03:32.399Z,4.10
2023-04-17T15:06:01.584Z,3.88
2023-04-17T15:08:28.870Z,3.53
2023-04-17T15:10:55.581Z,3.30
2023-04-17T15:13:22.282Z,3.70
2023-04-17T15:15:49.092Z,3.38
2023-04-17T15:18:15.836Z,3.90
2023-04-17T15:20:42.631Z,3.13
2023-04-17T15:23:09.359Z,3.45
2023-04-17T15:25:36.057Z,3.35
2023-04-17T15:28:02.886Z,3.75
2023-04-17T15:30:29.648Z,3.40
2023-04-17T15:32:56.617Z,3.60
2023-04-17T15:35:23.366Z,3.42
2023-04-17T15:37:50.102Z,3.13
2023-04-17T15:40:16.948Z,3.17
2023-04-17T15:42:43.874Z,2.97
2023-04-17T15:45:11.033Z,3.55
2023-04-17T15:47:37.826Z,3.55
2023-04-17T15:50:06.362Z,3.42
2023-04-17T15:52:33.228Z,3.20
2023-04-17T15:55:00.059Z,3.63
2023-04-17T15:57:26.887Z,3.50
2023-04-17T15:59:53.661Z,4.45
2023-04-17T16:02:21.574Z,3.30
2023-04-17T16:04:48.481Z,3.20
2023-04-17T16:07:16.621Z,4.22
2023-04-17T16:09:44.725Z,3.85
2023-04-17T16:12:16.832Z,3.25
2023-04-17T16:14:47.129Z,4.25
2023-04-17T16:17:13.941Z,4.13
2023-04-17T16:19:50.531Z,3.65
2023-04-17T16:22:18.685Z,2.70
2023-04-17T16:24:51.580Z,3.17
2023-04-17T16:27:29.423Z,2.92
2023-04-17T16:29:56.212Z,4.15
2023-04-17T16:32:24.655Z,3.33
2023-04-17T16:34:52.443Z,3.00
2023-04-17T16:37:19.156Z,3.30
2023-04-17T16:39:45.990Z,2.92
2023-04-17T16:42:12.747Z,3.83
2023-04-17T16:44:39.489Z,3.10
2023-04-17T16:47:13.132Z,3.50
2023-04-17T16:49:41.121Z,3.22
2023-04-17T16:52:08.027Z,3.80
2023-04-17T16:54:34.909Z,3.78
2023-04-17T16:57:01.822Z,4.32
2023-04-17T16:59:28.549Z,5.82
2023-04-17T17:01:55.392Z,3.67
2023-04-17T17:04:22.236Z,3.50
2023-04-17T17:06:49.064Z,3.05
2023-04-17T17:09:15.914Z,3.15
2023-04-17T17:11:42.622Z,2.67
2023-04-17T17:14:09.415Z,3.35
2023-04-17T17:16:36.932Z,2.78
2023-04-17T17:19:04.090Z,2.97
2023-04-17T17:21:31.188Z,2.95
2023-04-17T17:23:58.195Z,3.60
2023-04-17T17:26:26.849Z,3.15
2023-04-17T17:29:00.009Z,3.10
2023-04-17T17:31:27.354Z,2.90
2023-04-17T17:33:56.174Z,3.30
2023-04-17T17:36:23.156Z,3.95
2023-04-17T17:38:56.087Z,2.60
2023-04-17T17:41:23.834Z,2.85
2023-04-17T17:43:56.356Z,3.20
2023-04-17T17:46:24.567Z,3.15
2023-04-17T17:48:51.377Z,3.20
2023-04-17T17:56:41.793Z,3.05
2023-04-17T17:59:08.947Z,3.35
2023-04-17T18:01:46.717Z,3.33
2023-04-17T18:04:14.134Z,2.92
2023-04-17T18:06:41.512Z,3.97
2023-04-17T18:09:08.300Z,2.72
2023-04-17T18:14:18.596Z,3.83
2023-04-17T18:19:26.219Z,3.47
2023-04-17T18:21:53.800Z,3.17
2023-04-17T18:24:20.603Z,3.53
2023-04-17T18:26:48.404Z,2.90
2023-04-17T18:29:15.814Z,3.40
2023-04-17T18:31:42.831Z,3.20
2023-04-17T18:34:09.669Z,5.15
2023-04-17T18:36:36.436Z,4.53
2023-04-17T18:39:03.438Z,4.88
2023-04-17T18:41:30.400Z,3.92
2023-04-17T18:43:57.351Z,4.03
2023-04-17T18:46:26.359Z,4.03
2023-04-17T18:48:53.519Z,3.17
2023-04-17T18:51:20.886Z,3.28
2023-04-17T18:53:48.612Z,4.18
2023-04-17T18:56:16.171Z,3.40
2023-04-17T18:58:43.590Z,2.70
2023-04-17T19:01:10.939Z,3.00
2023-04-17T19:03:38.758Z,3.08
2023-04-17T19:06:06.823Z,3.65
2023-04-17T19:08:33.915Z,3.33
2023-04-17T19:11:01.135Z,2.80
2023-04-17T19:13:28.546Z,3.58
2023-04-17T19:15:55.296Z,3.63
2023-04-17T19:18:24.463Z,4.22
2023-04-17T19:20:56.675Z,4.15
2023-04-17T19:23:23.949Z,3.45
2023-04-17T19:25:57.234Z,3.13
2023-04-17T19:28:25.693Z,4.90
2023-04-17T19:30:53.126Z,3.75
2023-04-17T19:33:20.838Z,4.53
2023-04-17T19:35:57.429Z,6.30
2023-04-17T19:38:26.551Z,4.10
2023-04-17T19:41:14.845Z,3.33
2023-04-17T19:43:43.600Z,4.60
